createdAt,value
2019-03-01T00:00:20.248Z,0
2019-03-01T00:01:22.993Z,0
2019-03-01T00:02:25.844Z,0
2019-03-01T00:03:28.357Z,0
2019-03-01T00:04:30.479Z,0
2019-03-01T00:05:33.612Z,0
2019-03-01T00:06:35.725Z,0
2019-03-01T00:07:37.842Z,0
2019-03-01T00:08:39.953Z,0
2019-03-01T00:09:42.073Z,0
2019-03-01T00:10:44.870Z,0
2019-03-01T00:11:47.008Z,0
2019-03-01T00:12:49.417Z,0
2019-03-01T00:13:52.266Z,0
2019-03-01T00:14:55.057Z,0
2019-03-01T00:15:57.197Z,0
2019-03-01T00:16:59.314Z,0
2019-03-01T00:18:01.425Z,0
2019-03-01T00:19:03.568Z,0
2019-03-01T00:20:05.684Z,0
2019-03-01T00:21:08.223Z,0
2019-03-01T00:22:10.352Z,0
2019-03-01T00:23:12.469Z,0
2019-03-01T00:24:15.017Z,0
2019-03-01T00:25:17.144Z,0
2019-03-01T00:26:19.816Z,0
2019-03-01T00:27:21.948Z,0
2019-03-01T00:28:24.073Z,0
2019-03-01T00:29:26.196Z,0
2019-03-01T00:30:28.313Z,0
2019-03-01T00:31:30.446Z,0
2019-03-01T00:32:32.851Z,0
2019-03-01T00:33:34.962Z,0
2019-03-01T00:34:37.082Z,0
2019-03-01T00:35:39.181Z,0
2019-03-01T00:36:41.302Z,0
2019-03-01T00:37:43.418Z,0
2019-03-01T00:38:45.544Z,0
2019-03-01T00:39:48.605Z,0
2019-03-01T00:40:50.794Z,0
2019-03-01T00:41:52.912Z,0
2019-03-01T00:42:55.383Z,0
2019-03-01T00:43:57.882Z,0
2019-03-01T00:45:00.400Z,0
2019-03-01T00:46:02.838Z,0
2019-03-01T00:47:05.579Z,0
2019-03-01T00:48:07.676Z,0
2019-03-01T00:49:10.109Z,0
2019-03-01T00:50:12.502Z,0
2019-03-01T00:51:14.619Z,0
2019-03-01T00:52:16.768Z,0
2019-03-01T00:53:19.568Z,0
2019-03-01T00:54:21.692Z,0
2019-03-01T00:55:24.103Z,0
2019-03-01T00:56:26.538Z,0
2019-03-01T00:57:28.640Z,0
2019-03-01T00:58:31.042Z,0
2019-03-01T00:59:33.542Z,0
2019-03-01T01:00:35.660Z,0
2019-03-01T01:01:37.799Z,0
2019-03-01T01:02:39.964Z,0
2019-03-01T01:03:42.376Z,0
2019-03-01T01:04:44.503Z,0
2019-03-01T01:05:46.613Z,0
2019-03-01T01:06:48.724Z,0
2019-03-01T01:07:51.157Z,0
2019-03-01T01:08:53.934Z,0
2019-03-01T01:09:56.057Z,0
2019-03-01T01:10:58.171Z,0
2019-03-01T01:12:00.293Z,0
2019-03-01T01:13:02.990Z,0
2019-03-01T01:14:05.167Z,0
2019-03-01T01:15:07.330Z,0
2019-03-01T01:16:09.450Z,0
2019-03-01T01:17:11.583Z,0
2019-03-01T01:18:13.990Z,0
2019-03-01T01:19:16.118Z,0
2019-03-01T01:20:18.265Z,0
2019-03-01T01:21:20.392Z,0
2019-03-01T01:22:22.512Z,0
2019-03-01T01:23:24.644Z,0
2019-03-01T01:24:26.755Z,0
2019-03-01T01:25:29.184Z,0
2019-03-01T01:26:31.295Z,0
2019-03-01T01:27:34.012Z,0
2019-03-01T01:28:36.139Z,0
2019-03-01T01:29:38.258Z,0
2019-03-01T01:30:40.375Z,0
2019-03-01T01:31:42.532Z,0
2019-03-01T01:32:44.637Z,0
2019-03-01T01:33:46.766Z,0
2019-03-01T01:34:48.902Z,0
2019-03-01T01:35:51.410Z,0
2019-03-01T01:36:53.516Z,0
2019-03-01T01:37:55.651Z,0
2019-03-01T01:38:57.756Z,0
2019-03-01T01:39:59.872Z,0
2019-03-01T01:41:02.670Z,0
2019-03-01T01:42:04.773Z,0
2019-03-01T01:43:06.889Z,0
2019-03-01T01:44:09.287Z,0
2019-03-01T01:45:11.421Z,0
2019-03-01T01:46:14.211Z,0
2019-03-01T01:47:16.344Z,0
2019-03-01T01:48:18.828Z,0
2019-03-01T01:49:20.933Z,0
2019-03-01T01:50:23.072Z,0
2019-03-01T01:51:25.914Z,0
2019-03-01T01:52:28.373Z,0
2019-03-01T01:53:30.479Z,0
2019-03-01T01:54:32.917Z,0
2019-03-01T01:55:35.996Z,0
2019-03-01T01:56:38.518Z,0
2019-03-01T01:57:41.322Z,0
2019-03-01T01:58:43.431Z,0
2019-03-01T01:59:45.601Z,0
2019-03-01T02:00:48.305Z,0
2019-03-01T02:01:50.448Z,0
2019-03-01T02:02:52.576Z,0
2019-03-01T02:03:54.702Z,0
2019-03-01T02:04:56.817Z,0
2019-03-01T02:05:59.340Z,0
2019-03-01T02:07:01.736Z,0
2019-03-01T02:08:04.231Z,0
2019-03-01T02:09:07.050Z,0
2019-03-01T02:10:09.568Z,0
2019-03-01T02:11:11.984Z,0
2019-03-01T02:12:14.102Z,0
2019-03-01T02:13:16.225Z,0
2019-03-01T02:14:18.328Z,0
2019-03-01T02:15:20.456Z,0
2019-03-01T02:16:22.573Z,0
2019-03-01T02:17:24.695Z,0
2019-03-01T02:18:27.084Z,0
2019-03-01T02:19:29.212Z,0
2019-03-01T02:20:31.312Z,0
2019-03-01T02:21:33.433Z,0
2019-03-01T02:22:35.556Z,0
2019-03-01T02:23:40.070Z,0
2019-03-01T02:24:42.312Z,0
2019-03-01T02:25:44.512Z,0
2019-03-01T02:26:46.642Z,0
2019-03-01T02:27:48.743Z,0
2019-03-01T02:28:50.866Z,0
2019-03-01T02:29:53.285Z,0
2019-03-01T02:30:55.398Z,0
2019-03-01T02:31:58.166Z,0
2019-03-01T02:33:01.019Z,0
2019-03-01T02:34:04.130Z,0
2019-03-01T02:35:06.269Z,0
2019-03-01T02:36:09.397Z,0
2019-03-01T02:37:12.607Z,0
2019-03-01T02:38:14.774Z,0
2019-03-01T02:39:17.199Z,0
2019-03-01T02:40:19.771Z,0
2019-03-01T02:41:22.621Z,0
2019-03-01T02:42:24.863Z,0
2019-03-01T02:43:27.628Z,0
2019-03-01T02:44:29.766Z,0
2019-03-01T02:45:31.985Z,0
2019-03-01T02:46:34.409Z,0
2019-03-01T02:47:36.559Z,0
2019-03-01T02:48:38.720Z,0
2019-03-01T02:49:41.137Z,0
2019-03-01T02:50:43.731Z,0
2019-03-01T02:51:45.858Z,0
2019-03-01T02:52:48.436Z,0
2019-03-01T02:53:51.561Z,0
2019-03-01T02:54:53.692Z,0
2019-03-01T02:55:55.832Z,0
2019-03-01T02:56:57.938Z,0
2019-03-01T02:58:01.052Z,0
2019-03-01T02:59:03.489Z,0
2019-03-01T03:00:05.633Z,0
2019-03-01T03:01:07.753Z,0
2019-03-01T03:02:10.182Z,0
2019-03-01T03:03:12.317Z,0
2019-03-01T03:04:14.517Z,0
2019-03-01T03:05:16.955Z,0
2019-03-01T03:06:19.358Z,0
2019-03-01T03:07:21.512Z,0
2019-03-01T03:08:24.712Z,0
2019-03-01T03:09:27.149Z,0
2019-03-01T03:10:30.443Z,0
2019-03-01T03:11:33.253Z,0
2019-03-01T03:12:35.670Z,0
2019-03-01T03:13:38.141Z,0
2019-03-01T03:14:40.567Z,0
2019-03-01T03:15:43.004Z,0
2019-03-01T03:16:45.631Z,0
2019-03-01T03:17:48.127Z,0
2019-03-01T03:18:50.974Z,0
2019-03-01T03:19:53.106Z,0
2019-03-01T03:20:55.892Z,0
2019-03-01T03:21:59.132Z,0
2019-03-01T03:23:01.935Z,0
2019-03-01T03:24:04.811Z,0
2019-03-01T03:25:07.327Z,0
2019-03-01T03:26:10.093Z,0
2019-03-01T03:27:12.241Z,0
2019-03-01T03:28:14.641Z,0
2019-03-01T03:29:17.729Z,0
2019-03-01T03:30:20.146Z,0
2019-03-01T03:31:22.799Z,0
2019-03-01T03:32:25.359Z,0
2019-03-01T03:33:28.311Z,0
2019-03-01T03:34:31.127Z,0
2019-03-01T03:35:33.727Z,0
2019-03-01T03:36:36.244Z,0
2019-03-01T03:37:39.263Z,0
2019-03-01T03:38:41.414Z,0
2019-03-01T03:39:43.520Z,0
2019-03-01T03:40:46.268Z,0
2019-03-01T03:41:49.133Z,0
2019-03-01T03:42:51.265Z,0
2019-03-01T03:43:53.385Z,0
2019-03-01T03:44:56.196Z,0
2019-03-01T03:45:58.619Z,0
2019-03-01T03:47:00.761Z,0
2019-03-01T03:48:03.195Z,0
2019-03-01T03:49:05.750Z,0
2019-03-01T03:50:08.157Z,0
2019-03-01T03:51:10.688Z,0
2019-03-01T03:52:13.610Z,0
2019-03-01T03:53:16.026Z,0
2019-03-01T03:54:18.144Z,0
2019-03-01T03:55:20.588Z,0
2019-03-01T03:56:23.685Z,0
2019-03-01T03:57:26.209Z,0
2019-03-01T03:58:29.000Z,0
2019-03-01T03:59:31.743Z,0
2019-03-01T04:00:34.264Z,0
2019-03-01T04:01:36.401Z,0
2019-03-01T04:02:38.831Z,0
2019-03-01T04:03:41.372Z,0
2019-03-01T04:04:43.894Z,0
2019-03-01T04:05:46.025Z,0
2019-03-01T04:06:48.440Z,0
2019-03-01T04:07:51.617Z,0
2019-03-01T04:08:53.759Z,0
2019-03-01T04:09:56.560Z,0
2019-03-01T04:10:59.427Z,0
2019-03-01T04:12:02.549Z,0
2019-03-01T04:13:05.637Z,0
2019-03-01T04:14:07.765Z,0
2019-03-01T04:15:10.219Z,0
2019-03-01T04:16:12.677Z,0
2019-03-01T04:17:15.105Z,0
2019-03-01T04:18:18.213Z,0
2019-03-01T04:19:21.158Z,0
2019-03-01T04:20:23.594Z,0
2019-03-01T04:21:26.168Z,0
2019-03-01T04:22:28.602Z,0
2019-03-01T04:23:31.007Z,0
2019-03-01T04:24:33.562Z,0
2019-03-01T04:25:36.251Z,0
2019-03-01T04:26:38.675Z,0
2019-03-01T04:27:40.817Z,0
2019-03-01T04:28:43.660Z,0
2019-03-01T04:29:45.798Z,0
2019-03-01T04:30:47.972Z,0
2019-03-01T04:31:50.398Z,0
2019-03-01T04:32:53.188Z,0
2019-03-01T04:33:55.995Z,0
2019-03-01T04:34:58.442Z,0
2019-03-01T04:36:00.857Z,0
2019-03-01T04:37:03.029Z,0
2019-03-01T04:38:05.154Z,0
2019-03-01T04:39:07.664Z,0
2019-03-01T04:40:09.780Z,0
2019-03-01T04:41:11.908Z,0
2019-03-01T04:42:14.013Z,0
2019-03-01T04:43:16.139Z,0
2019-03-01T04:44:18.267Z,0
2019-03-01T04:45:20.374Z,0
2019-03-01T04:46:22.504Z,0
2019-03-01T04:47:25.010Z,0
2019-03-01T04:48:27.403Z,0
2019-03-01T04:49:30.297Z,0
2019-03-01T04:50:32.489Z,0
2019-03-01T04:51:39.993Z,0
2019-03-01T04:52:42.721Z,0
2019-03-01T04:53:44.854Z,0
2019-03-01T04:54:47.022Z,0
2019-03-01T04:55:49.134Z,0
2019-03-01T04:56:51.260Z,0
2019-03-01T04:57:53.369Z,0
2019-03-01T04:58:55.894Z,0
2019-03-01T04:59:58.008Z,0
2019-03-01T05:01:00.507Z,0
2019-03-01T05:02:02.641Z,0
2019-03-01T05:03:05.050Z,0
2019-03-01T05:04:07.167Z,0
2019-03-01T05:05:09.598Z,0
2019-03-01T05:06:12.019Z,0
2019-03-01T05:07:14.136Z,0
2019-03-01T05:08:16.249Z,0
2019-03-01T05:09:19.001Z,0
2019-03-01T05:10:21.126Z,0
2019-03-01T05:11:23.958Z,0
2019-03-01T05:12:26.072Z,0
2019-03-01T05:13:28.181Z,0
2019-03-01T05:14:30.308Z,0
2019-03-01T05:15:32.724Z,0
2019-03-01T05:16:34.854Z,0
2019-03-01T05:17:36.974Z,0
2019-03-01T05:18:39.370Z,0
2019-03-01T05:19:41.502Z,0
2019-03-01T05:20:43.621Z,0
2019-03-01T05:21:46.052Z,0
2019-03-01T05:22:48.178Z,0
2019-03-01T05:23:50.627Z,0
2019-03-01T05:24:52.738Z,0
2019-03-01T05:25:55.145Z,0
2019-03-01T05:26:57.269Z,0
2019-03-01T05:27:59.374Z,0
2019-03-01T05:29:01.501Z,0
2019-03-01T05:30:04.695Z,0
2019-03-01T05:31:07.080Z,0
2019-03-01T05:32:09.203Z,0
2019-03-01T05:33:11.323Z,0
2019-03-01T05:34:13.423Z,0
2019-03-01T05:35:15.839Z,0
2019-03-01T05:36:18.368Z,0
2019-03-01T05:37:20.482Z,0
2019-03-01T05:38:22.870Z,4
2019-03-01T05:39:25.000Z,4
2019-03-01T05:40:27.214Z,0
2019-03-01T05:41:29.676Z,4
2019-03-01T05:42:32.195Z,4
2019-03-01T05:43:34.594Z,4
2019-03-01T05:44:36.726Z,8
2019-03-01T05:45:38.854Z,4
2019-03-01T05:46:40.976Z,8
2019-03-01T05:47:43.083Z,8
2019-03-01T05:48:45.625Z,8
2019-03-01T05:49:47.743Z,8
2019-03-01T05:50:49.868Z,16
2019-03-01T05:51:52.658Z,16
2019-03-01T05:52:54.790Z,20
2019-03-01T05:53:56.913Z,28
2019-03-01T05:54:59.015Z,28
2019-03-01T05:56:01.275Z,32
2019-03-01T05:57:03.406Z,44
2019-03-01T05:58:05.516Z,44
2019-03-01T05:59:18.298Z,60
2019-03-01T06:00:20.419Z,72
2019-03-01T06:01:22.522Z,88
2019-03-01T06:02:24.713Z,100
2019-03-01T06:03:26.839Z,112
2019-03-01T06:04:29.330Z,124
2019-03-01T06:05:31.453Z,132
2019-03-01T06:06:33.585Z,152
2019-03-01T06:07:36.297Z,160
2019-03-01T06:08:38.817Z,172
2019-03-01T06:09:40.935Z,188
2019-03-01T06:10:43.062Z,204
2019-03-01T06:11:45.481Z,216
2019-03-01T06:12:47.615Z,212
2019-03-01T06:13:49.717Z,208
2019-03-01T06:14:52.126Z,220
2019-03-01T06:15:54.249Z,228
2019-03-01T06:16:56.662Z,256
2019-03-01T06:17:59.072Z,292
2019-03-01T06:19:01.192Z,284
2019-03-01T06:20:03.703Z,292
2019-03-01T06:21:06.480Z,304
2019-03-01T06:22:09.004Z,340
2019-03-01T06:23:11.696Z,348
2019-03-01T06:24:13.798Z,360
2019-03-01T06:25:16.210Z,384
2019-03-01T06:26:19.301Z,380
2019-03-01T06:27:21.474Z,392
2019-03-01T06:28:23.584Z,444
2019-03-01T06:29:25.983Z,468
2019-03-01T06:30:28.110Z,488
2019-03-01T06:31:30.228Z,488
2019-03-01T06:32:32.356Z,500
2019-03-01T06:33:34.478Z,524
2019-03-01T06:34:36.887Z,512
2019-03-01T06:35:39.008Z,528
2019-03-01T06:36:41.147Z,560
2019-03-01T06:37:43.249Z,592
2019-03-01T06:38:45.367Z,604
2019-03-01T06:39:47.880Z,612
2019-03-01T06:40:49.990Z,612
2019-03-01T06:41:52.539Z,612
2019-03-01T06:42:55.226Z,600
2019-03-01T06:43:57.347Z,616
2019-03-01T06:44:59.456Z,652
2019-03-01T06:46:02.690Z,716
2019-03-01T06:47:05.217Z,808
2019-03-01T06:48:07.625Z,776
2019-03-01T06:49:09.757Z,844
2019-03-01T06:50:13.100Z,920
2019-03-01T06:51:15.307Z,920
2019-03-01T06:52:17.429Z,904
2019-03-01T06:53:19.549Z,872
2019-03-01T06:54:21.651Z,916
2019-03-01T06:55:23.774Z,852
2019-03-01T06:56:26.281Z,784
2019-03-01T06:57:28.438Z,788
2019-03-01T06:58:30.577Z,888
2019-03-01T06:59:32.683Z,1052
2019-03-01T07:00:34.800Z,1052
2019-03-01T07:01:37.518Z,1080
2019-03-01T07:02:39.638Z,1124
2019-03-01T07:03:42.043Z,1328
2019-03-01T07:04:44.446Z,1400
2019-03-01T07:05:46.554Z,1420
2019-03-01T07:06:48.954Z,1404
2019-03-01T07:07:51.106Z,1584
2019-03-01T07:08:53.229Z,1572
2019-03-01T07:09:55.740Z,1584
2019-03-01T07:10:57.871Z,1596
2019-03-01T07:11:59.990Z,1576
2019-03-01T07:13:02.697Z,1576
2019-03-01T07:14:04.833Z,1660
2019-03-01T07:15:08.709Z,1520
2019-03-01T07:16:10.953Z,1436
2019-03-01T07:17:13.465Z,1536
2019-03-01T07:18:15.886Z,1552
2019-03-01T07:19:17.989Z,1640
2019-03-01T07:20:20.165Z,1712
2019-03-01T07:21:22.957Z,1708
2019-03-01T07:22:25.389Z,1636
2019-03-01T07:23:36.219Z,1640
2019-03-01T07:24:39.445Z,1552
2019-03-01T07:25:42.456Z,1464
2019-03-01T07:26:44.723Z,1476
2019-03-01T07:27:47.156Z,1676
2019-03-01T07:28:49.272Z,1708
2019-03-01T07:29:51.418Z,1660
2019-03-01T07:30:53.544Z,1592
2019-03-01T07:31:55.645Z,1724
2019-03-01T07:32:58.064Z,1640
2019-03-01T07:34:00.189Z,1544
2019-03-01T07:35:02.874Z,1732
2019-03-01T07:36:05.407Z,1836
2019-03-01T07:37:07.538Z,1884
2019-03-01T07:38:09.648Z,2040
2019-03-01T07:39:12.086Z,2264
2019-03-01T07:40:14.224Z,2472
2019-03-01T07:41:16.616Z,2424
2019-03-01T07:42:18.771Z,2636
2019-03-01T07:43:20.886Z,2764
2019-03-01T07:44:23.021Z,2724
2019-03-01T07:45:25.139Z,2744
2019-03-01T07:46:27.552Z,2936
2019-03-01T07:47:29.965Z,2988
2019-03-01T07:48:32.367Z,2928
2019-03-01T07:49:34.773Z,2868
2019-03-01T07:50:36.890Z,3004
2019-03-01T07:51:39.021Z,2964
2019-03-01T07:52:41.129Z,2872
2019-03-01T07:53:43.563Z,2964
2019-03-01T07:54:45.688Z,3020
2019-03-01T07:55:55.105Z,3196
2019-03-01T07:56:57.559Z,3108
2019-03-01T07:57:59.686Z,2868
2019-03-01T07:59:02.484Z,2536
2019-03-01T08:00:04.607Z,2412
2019-03-01T08:01:07.031Z,2576
2019-03-01T08:02:09.827Z,2400
2019-03-01T08:03:14.775Z,2044
2019-03-01T08:04:17.924Z,2228
2019-03-01T08:05:20.026Z,2060
2019-03-01T08:06:22.160Z,2496
2019-03-01T08:07:24.342Z,2408
2019-03-01T08:08:27.422Z,2256
2019-03-01T08:09:29.560Z,2656
2019-03-01T08:10:31.688Z,2960
2019-03-01T08:11:33.800Z,2952
2019-03-01T08:12:38.526Z,2764
2019-03-01T08:13:45.454Z,2384
2019-03-01T08:14:55.154Z,1988
2019-03-01T08:15:57.275Z,2516
2019-03-01T08:16:59.401Z,2740
2019-03-01T08:18:04.597Z,2828
2019-03-01T08:19:11.122Z,2804
2019-03-01T08:20:24.873Z,2616
2019-03-01T08:21:26.982Z,2452
2019-03-01T08:22:29.413Z,2420
2019-03-01T08:23:35.017Z,2412
2019-03-01T08:24:37.982Z,2584
2019-03-01T08:25:40.121Z,2708
2019-03-01T08:26:42.275Z,2856
2019-03-01T08:27:46.123Z,3012
2019-03-01T08:28:54.636Z,3048
2019-03-01T08:30:02.050Z,3148
2019-03-01T08:31:12.323Z,2984
2019-03-01T08:32:14.460Z,2816
2019-03-01T08:33:16.884Z,2940
2019-03-01T08:34:19.008Z,3112
2019-03-01T08:35:21.126Z,3392
2019-03-01T08:36:29.918Z,3508
2019-03-01T08:37:32.327Z,3500
2019-03-01T08:38:34.440Z,3748
2019-03-01T08:39:39.657Z,4244
2019-03-01T08:40:42.742Z,4616
2019-03-01T08:41:51.957Z,4728
2019-03-01T08:42:54.663Z,4728
2019-03-01T08:43:57.458Z,4836
2019-03-01T08:44:59.574Z,5124
2019-03-01T08:46:05.357Z,5380
2019-03-01T08:47:12.275Z,5552
2019-03-01T08:48:14.396Z,5660
2019-03-01T08:49:16.823Z,5868
2019-03-01T08:50:18.940Z,6148
2019-03-01T08:51:22.521Z,6512
2019-03-01T08:52:29.394Z,6956
2019-03-01T08:53:31.523Z,7152
2019-03-01T08:54:33.629Z,7600
2019-03-01T08:55:38.805Z,8348
2019-03-01T08:56:41.815Z,9560
2019-03-01T08:57:52.448Z,11212
2019-03-01T08:58:54.565Z,11720
2019-03-01T08:59:56.691Z,10712
2019-03-01T09:00:59.802Z,8972
2019-03-01T09:02:12.014Z,8152
2019-03-01T09:03:15.971Z,8008
2019-03-01T09:04:24.956Z,7616
2019-03-01T09:05:27.056Z,7276
2019-03-01T09:06:29.474Z,7684
2019-03-01T09:07:31.976Z,8120
2019-03-01T09:08:34.100Z,7760
2019-03-01T09:09:36.495Z,7320
2019-03-01T09:10:38.624Z,7432
2019-03-01T09:11:41.602Z,7628
2019-03-01T09:12:47.274Z,7412
2019-03-01T09:13:49.418Z,7120
2019-03-01T09:14:51.560Z,6856
2019-03-01T09:15:53.954Z,6496
2019-03-01T09:16:56.388Z,6028
2019-03-01T09:17:58.519Z,5772
2019-03-01T09:19:00.894Z,5784
2019-03-01T09:20:03.157Z,5608
2019-03-01T09:21:06.086Z,5452
2019-03-01T09:22:15.864Z,5696
2019-03-01T09:23:24.131Z,5996
2019-03-01T09:24:29.992Z,6284
2019-03-01T09:25:32.451Z,6380
2019-03-01T09:26:35.588Z,6804
2019-03-01T09:27:37.884Z,7480
2019-03-01T09:28:40.066Z,7176
2019-03-01T09:29:42.495Z,6496
2019-03-01T09:30:44.877Z,6260
2019-03-01T09:31:46.998Z,6592
2019-03-01T09:32:49.119Z,6920
2019-03-01T09:33:53.656Z,7004
2019-03-01T09:34:59.311Z,7256
2019-03-01T09:36:09.849Z,7412
2019-03-01T09:37:15.391Z,7236
2019-03-01T09:38:17.503Z,6996
2019-03-01T09:39:19.938Z,6552
2019-03-01T09:40:25.498Z,6236
2019-03-01T09:41:31.866Z,7084
2019-03-01T09:42:33.977Z,7684
2019-03-01T09:43:36.526Z,8576
2019-03-01T09:44:39.310Z,10012
2019-03-01T09:45:41.890Z,10120
2019-03-01T09:46:50.828Z,9740
2019-03-01T09:47:52.937Z,9352
2019-03-01T09:48:55.348Z,9044
2019-03-01T09:49:59.957Z,8752
2019-03-01T09:51:03.212Z,8604
2019-03-01T09:52:12.637Z,8644
2019-03-01T09:53:14.763Z,8524
2019-03-01T09:54:16.875Z,7888
2019-03-01T09:55:19.297Z,7536
2019-03-01T09:56:21.410Z,7864
2019-03-01T09:57:25.938Z,9932
2019-03-01T09:58:28.070Z,11284
2019-03-01T09:59:30.202Z,11704
2019-03-01T10:00:32.614Z,11820
2019-03-01T10:01:34.743Z,12072
2019-03-01T10:02:36.868Z,13748
2019-03-01T10:03:39.036Z,15356
2019-03-01T10:04:41.171Z,14864
2019-03-01T10:05:43.331Z,14632
2019-03-01T10:06:45.451Z,15588
2019-03-01T10:07:47.554Z,15072
2019-03-01T10:08:49.709Z,14452
2019-03-01T10:09:52.198Z,12924
2019-03-01T10:10:54.317Z,12836
2019-03-01T10:11:56.862Z,11572
2019-03-01T10:12:58.964Z,10560
2019-03-01T10:14:01.105Z,11816
2019-03-01T10:15:03.250Z,12384
2019-03-01T10:16:05.378Z,11932
2019-03-01T10:17:07.493Z,11400
2019-03-01T10:18:10.016Z,11276
2019-03-01T10:19:12.447Z,11048
2019-03-01T10:20:15.251Z,10708
2019-03-01T10:21:17.636Z,10416
2019-03-01T10:22:19.770Z,9788
2019-03-01T10:23:21.889Z,8836
2019-03-01T10:24:24.390Z,7924
2019-03-01T10:25:26.512Z,6500
2019-03-01T10:26:28.646Z,6076
2019-03-01T10:27:30.754Z,6132
2019-03-01T10:28:32.880Z,6172
2019-03-01T10:29:34.999Z,7008
2019-03-01T10:30:37.103Z,7544
2019-03-01T10:31:39.524Z,8072
2019-03-01T10:32:41.657Z,8504
2019-03-01T10:33:43.758Z,8396
2019-03-01T10:34:45.878Z,8260
2019-03-01T10:35:48.004Z,8376
2019-03-01T10:36:50.507Z,8208
2019-03-01T10:37:53.678Z,7428
2019-03-01T10:38:56.540Z,7160
2019-03-01T10:39:58.945Z,7760
2019-03-01T10:41:01.158Z,8072
2019-03-01T10:42:03.295Z,7936
2019-03-01T10:43:05.398Z,7528
2019-03-01T10:44:07.513Z,7292
2019-03-01T10:45:09.635Z,7348
2019-03-01T10:46:11.740Z,7588
2019-03-01T10:47:13.867Z,7876
2019-03-01T10:48:16.001Z,8264
2019-03-01T10:49:18.131Z,8620
2019-03-01T10:50:20.234Z,8752
2019-03-01T10:51:22.950Z,8760
2019-03-01T10:52:25.066Z,8748
2019-03-01T10:53:27.282Z,8824
2019-03-01T10:54:29.424Z,9036
2019-03-01T10:55:31.535Z,9404
2019-03-01T10:56:33.657Z,9976
2019-03-01T10:57:36.043Z,10272
2019-03-01T10:58:38.196Z,10112
2019-03-01T10:59:40.322Z,9872
2019-03-01T11:00:42.493Z,9824
2019-03-01T11:01:44.625Z,9732
2019-03-01T11:02:46.748Z,9520
2019-03-01T11:03:49.237Z,9364
2019-03-01T11:04:51.373Z,9360
2019-03-01T11:05:53.497Z,9624
2019-03-01T11:06:55.607Z,9764
2019-03-01T11:07:57.775Z,9660
2019-03-01T11:08:59.905Z,9528
2019-03-01T11:10:02.034Z,9312
2019-03-01T11:11:04.450Z,8964
2019-03-01T11:12:06.582Z,8732
2019-03-01T11:13:09.174Z,8824
2019-03-01T11:14:11.282Z,9056
2019-03-01T11:15:13.493Z,9068
2019-03-01T11:16:15.634Z,9128
2019-03-01T11:17:17.835Z,9452
2019-03-01T11:18:19.956Z,9772
2019-03-01T11:19:22.069Z,9832
2019-03-01T11:20:24.198Z,9652
2019-03-01T11:21:26.352Z,9380
2019-03-01T11:22:28.487Z,9036
2019-03-01T11:23:30.596Z,8748
2019-03-01T11:24:32.760Z,8252
2019-03-01T11:25:34.872Z,8284
2019-03-01T11:26:36.986Z,8668
2019-03-01T11:27:39.148Z,8848
2019-03-01T11:28:41.308Z,8836
2019-03-01T11:29:43.432Z,9080
2019-03-01T11:30:45.858Z,9488
2019-03-01T11:31:48.322Z,9560
2019-03-01T11:32:50.824Z,9396
2019-03-01T11:33:53.231Z,9304
2019-03-01T11:34:55.370Z,9564
2019-03-01T11:35:57.513Z,9836
2019-03-01T11:36:59.619Z,9788
2019-03-01T11:38:02.186Z,9612
2019-03-01T11:39:04.314Z,9444
2019-03-01T11:40:06.478Z,9332
2019-03-01T11:41:08.609Z,9240
2019-03-01T11:42:10.738Z,9068
2019-03-01T11:43:12.890Z,8828
2019-03-01T11:44:15.034Z,8648
2019-03-01T11:45:17.196Z,8552
2019-03-01T11:46:19.310Z,8388
2019-03-01T11:47:21.460Z,8396
2019-03-01T11:48:23.611Z,8532
2019-03-01T11:49:26.451Z,8404
2019-03-01T11:50:28.669Z,8052
2019-03-01T11:51:30.812Z,7820
2019-03-01T11:52:33.277Z,7908
2019-03-01T11:53:35.409Z,8208
2019-03-01T11:54:37.790Z,8684
2019-03-01T11:55:40.206Z,8928
2019-03-01T11:56:42.778Z,8800
2019-03-01T11:57:44.927Z,8724
2019-03-01T11:58:47.042Z,8852
2019-03-01T11:59:49.461Z,8924
2019-03-01T12:00:52.170Z,8928
2019-03-01T12:01:54.898Z,8884
2019-03-01T12:02:57.014Z,9080
2019-03-01T12:03:59.161Z,9140
2019-03-01T12:05:01.296Z,9028
2019-03-01T12:06:03.707Z,8504
2019-03-01T12:07:06.247Z,8040
2019-03-01T12:08:09.031Z,7788
2019-03-01T12:09:11.438Z,7652
2019-03-01T12:10:13.564Z,7528
2019-03-01T12:11:15.686Z,7560
2019-03-01T12:12:17.800Z,7716
2019-03-01T12:13:20.211Z,7724
2019-03-01T12:14:22.464Z,7704
2019-03-01T12:15:24.618Z,7556
2019-03-01T12:16:26.755Z,7508
2019-03-01T12:17:28.912Z,7504
2019-03-01T12:18:31.029Z,7540
2019-03-01T12:19:33.142Z,8280
2019-03-01T12:20:35.271Z,9228
2019-03-01T12:21:37.651Z,9612
2019-03-01T12:22:39.790Z,9620
2019-03-01T12:23:41.919Z,9404
2019-03-01T12:24:44.026Z,9136
2019-03-01T12:25:46.172Z,9308
2019-03-01T12:26:48.291Z,9252
2019-03-01T12:27:50.406Z,9240
2019-03-01T12:28:52.573Z,9280
2019-03-01T12:29:54.745Z,9316
2019-03-01T12:30:56.865Z,9340
2019-03-01T12:31:59.553Z,9012
2019-03-01T12:33:02.058Z,8688
2019-03-01T12:34:04.156Z,8636
2019-03-01T12:35:06.294Z,8656
2019-03-01T12:36:08.428Z,8464
2019-03-01T12:37:10.538Z,8196
2019-03-01T12:38:12.657Z,8124
2019-03-01T12:39:14.791Z,8344
2019-03-01T12:40:16.907Z,8296
2019-03-01T12:41:19.039Z,7924
2019-03-01T12:42:21.169Z,7668
2019-03-01T12:43:23.274Z,7376
2019-03-01T12:44:25.410Z,7208
2019-03-01T12:45:27.533Z,7024
2019-03-01T12:46:29.643Z,6844
2019-03-01T12:47:31.774Z,6888
2019-03-01T12:48:33.904Z,6764
2019-03-01T12:49:36.037Z,6552
2019-03-01T12:50:38.139Z,6628
2019-03-01T12:51:40.266Z,6688
2019-03-01T12:52:42.701Z,6892
2019-03-01T12:53:45.169Z,7100
2019-03-01T12:54:47.835Z,7028
2019-03-01T12:55:50.375Z,7140
2019-03-01T12:56:52.774Z,7352
2019-03-01T12:57:54.879Z,7456
2019-03-01T12:58:57.020Z,7448
2019-03-01T12:59:59.137Z,7216
2019-03-01T13:01:01.406Z,7076
2019-03-01T13:02:03.530Z,6904
2019-03-01T13:03:08.936Z,6496
2019-03-01T13:04:15.568Z,6276
2019-03-01T13:05:21.205Z,6304
2019-03-01T13:06:31.431Z,6332
2019-03-01T13:07:41.237Z,6344
2019-03-01T13:08:47.628Z,6196
2019-03-01T13:09:54.155Z,6068
2019-03-01T13:10:56.254Z,6040
2019-03-01T13:11:58.423Z,6224
2019-03-01T13:13:01.983Z,6840
2019-03-01T13:14:10.683Z,6900
2019-03-01T13:15:13.735Z,6392
2019-03-01T13:16:16.558Z,6040
2019-03-01T13:17:18.662Z,5900
2019-03-01T13:18:20.774Z,5668
2019-03-01T13:19:23.279Z,5504
2019-03-01T13:20:29.867Z,5516
2019-03-01T13:21:39.305Z,5496
2019-03-01T13:22:41.444Z,5452
2019-03-01T13:23:45.392Z,5512
2019-03-01T13:24:50.314Z,5496
2019-03-01T13:25:55.943Z,5272
2019-03-01T13:26:58.063Z,5144
2019-03-01T13:28:00.173Z,4980
2019-03-01T13:29:02.592Z,4768
2019-03-01T13:30:04.737Z,4760
2019-03-01T13:31:08.089Z,5096
2019-03-01T13:32:14.098Z,5580
2019-03-01T13:33:16.230Z,5748
2019-03-01T13:34:18.336Z,5808
2019-03-01T13:35:22.177Z,5872
2019-03-01T13:36:29.330Z,6104
2019-03-01T13:37:31.468Z,6044
2019-03-01T13:38:34.992Z,5948
2019-03-01T13:39:37.427Z,5476
2019-03-01T13:40:39.838Z,5404
2019-03-01T13:41:41.941Z,5520
2019-03-01T13:42:47.124Z,5484
2019-03-01T13:43:53.822Z,5552
2019-03-01T13:44:55.932Z,5632
2019-03-01T13:45:58.045Z,5680
2019-03-01T13:47:05.259Z,5740
2019-03-01T13:48:11.249Z,5704
2019-03-01T13:49:13.375Z,5536
2019-03-01T13:50:15.875Z,5348
2019-03-01T13:51:18.035Z,5284
2019-03-01T13:52:20.751Z,5348
2019-03-01T13:53:22.876Z,5392
2019-03-01T13:54:24.998Z,5304
2019-03-01T13:55:27.698Z,5240
2019-03-01T13:56:32.767Z,5204
2019-03-01T13:57:38.542Z,4896
2019-03-01T13:58:40.988Z,4696
2019-03-01T13:59:44.060Z,4444
2019-03-01T14:00:48.738Z,4504
2019-03-01T14:01:51.569Z,4356
2019-03-01T14:02:53.750Z,4008
2019-03-01T14:03:55.864Z,3924
2019-03-01T14:05:05.317Z,4056
2019-03-01T14:06:07.452Z,4220
2019-03-01T14:07:09.572Z,4304
2019-03-01T14:08:11.685Z,4404
2019-03-01T14:09:13.806Z,4368
2019-03-01T14:10:15.987Z,4364
2019-03-01T14:11:20.871Z,4328
2019-03-01T14:12:25.503Z,4204
2019-03-01T14:13:29.147Z,4044
2019-03-01T14:14:31.479Z,3944
2019-03-01T14:15:34.942Z,3552
2019-03-01T14:16:41.999Z,3876
2019-03-01T14:17:44.125Z,4044
2019-03-01T14:18:46.514Z,3876
2019-03-01T14:19:48.636Z,3688
2019-03-01T14:20:50.779Z,3592
2019-03-01T14:22:00.477Z,3836
2019-03-01T14:23:13.013Z,3748
2019-03-01T14:24:15.134Z,3656
2019-03-01T14:25:17.250Z,3488
2019-03-01T14:26:19.709Z,3388
2019-03-01T14:27:21.877Z,3384
2019-03-01T14:28:23.982Z,3344
2019-03-01T14:29:26.428Z,3324
2019-03-01T14:30:32.455Z,3356
2019-03-01T14:31:35.698Z,3324